sensor_id;sensor_type;location;lat;lon;timestamp;pressure;altitude;pressure_sealevel;temperature;humidity
9538;BME280;4807;48.024;11.726;2023-05-02T00:00:16;95022.84;;;9.51;87.97
9538;BME280;4807;48.024;11.726;2023-05-02T00:03:24;95035.38;;;9.36;88.02
9538;BME280;4807;48.024;11.726;2023-05-02T00:06:33;95022.03;;;9.51;87.76
9538;BME280;4807;48.024;11.726;2023-05-02T00:09:45;95030.53;;;9.40;88.20
9538;BME280;4807;48.024;11.726;2023-05-02T00:12:53;95013.81;;;9.46;88.80
9538;BME280;4807;48.024;11.726;2023-05-02T00:16:02;95009.59;;;9.30;88.36
9538;BME280;4807;48.024;11.726;2023-05-02T00:19:10;95024.41;;;9.39;88.86
9538;BME280;4807;48.024;11.726;2023-05-02T00:22:19;95025.94;;;9.55;87.26
9538;BME280;4807;48.024;11.726;2023-05-02T00:25:29;95029.56;;;9.47;87.24
9538;BME280;4807;48.024;11.726;2023-05-02T00:28:38;95022.28;;;9.56;87.72
9538;BME280;4807;48.024;11.726;2023-05-02T00:31:46;95020.81;;;9.53;87.15
9538;BME280;4807;48.024;11.726;2023-05-02T00:34:55;95022.19;;;9.49;87.46
9538;BME280;4807;48.024;11.726;2023-05-02T00:38:03;95016.75;;;9.57;86.73
9538;BME280;4807;48.024;11.726;2023-05-02T00:41:15;95015.50;;;9.53;87.20
9538;BME280;4807;48.024;11.726;2023-05-02T00:44:24;95012.84;;;9.53;87.74
9538;BME280;4807;48.024;11.726;2023-05-02T00:47:33;95011.06;;;9.61;86.65
9538;BME280;4807;48.024;11.726;2023-05-02T00:50:42;95016.22;;;9.41;87.04
9538;BME280;4807;48.024;11.726;2023-05-02T00:53:51;95017.25;;;9.40;88.14
9538;BME280;4807;48.024;11.726;2023-05-02T00:57:02;95015.13;;;9.56;87.14
9538;BME280;4807;48.024;11.726;2023-05-02T01:00:12;95021.00;;;9.52;86.80
9538;BME280;4807;48.024;11.726;2023-05-02T01:03:33;95021.53;;;9.41;86.94
9538;BME280;4807;48.024;11.726;2023-05-02T01:06:58;95026.66;;;9.42;87.73
9538;BME280;4807;48.024;11.726;2023-05-02T01:10:20;95023.66;;;9.24;88.01
9538;BME280;4807;48.024;11.726;2023-05-02T01:13:34;95026.72;;;9.28;87.13
9538;BME280;4807;48.024;11.726;2023-05-02T01:16:45;95023.38;;;9.19;87.11
9538;BME280;4807;48.024;11.726;2023-05-02T01:19:58;95016.66;;;9.02;88.30
9538;BME280;4807;48.024;11.726;2023-05-02T01:23:20;95017.81;;;8.93;88.19
9538;BME280;4807;48.024;11.726;2023-05-02T01:26:38;95021.03;;;8.88;88.29
9538;BME280;4807;48.024;11.726;2023-05-02T01:29:56;95021.88;;;8.89;88.00
9538;BME280;4807;48.024;11.726;2023-05-02T01:33:11;95029.41;;;8.70;88.27
9538;BME280;4807;48.024;11.726;2023-05-02T01:36:24;95029.94;;;8.59;89.49
9538;BME280;4807;48.024;11.726;2023-05-02T01:39:37;95025.22;;;8.61;88.99
9538;BME280;4807;48.024;11.726;2023-05-02T01:42:49;95028.88;;;8.60;89.05
9538;BME280;4807;48.024;11.726;2023-05-02T01:46:01;95028.00;;;8.53;88.94
9538;BME280;4807;48.024;11.726;2023-05-02T01:49:11;95031.03;;;8.50;89.24
9538;BME280;4807;48.024;11.726;2023-05-02T01:52:21;95034.31;;;8.52;89.37
9538;BME280;4807;48.024;11.726;2023-05-02T01:55:32;95030.03;;;8.51;89.27
9538;BME280;4807;48.024;11.726;2023-05-02T01:58:45;95041.66;;;8.50;89.42
9538;BME280;4807;48.024;11.726;2023-05-02T02:01:58;95038.38;;;8.33;89.60
9538;BME280;4807;48.024;11.726;2023-05-02T02:05:11;95036.63;;;8.26;89.77
9538;BME280;4807;48.024;11.726;2023-05-02T02:08:19;95045.13;;;8.21;89.92
9538;BME280;4807;48.024;11.726;2023-05-02T02:11:34;95049.44;;;8.37;89.97
9538;BME280;4807;48.024;11.726;2023-05-02T02:14:50;95048.72;;;8.43;88.85
9538;BME280;4807;48.024;11.726;2023-05-02T02:18:09;95043.94;;;8.24;89.64
9538;BME280;4807;48.024;11.726;2023-05-02T02:21:20;95046.00;;;8.28;89.39
9538;BME280;4807;48.024;11.726;2023-05-02T02:24:31;95053.53;;;8.54;88.64
9538;BME280;4807;48.024;11.726;2023-05-02T02:27:42;95056.78;;;8.35;88.92
9538;BME280;4807;48.024;11.726;2023-05-02T02:30:50;95049.78;;;8.19;89.27
9538;BME280;4807;48.024;11.726;2023-05-02T02:34:01;95053.00;;;8.15;89.58
9538;BME280;4807;48.024;11.726;2023-05-02T02:37:17;95056.63;;;8.14;90.31
9538;BME280;4807;48.024;11.726;2023-05-02T02:40:30;95057.28;;;8.16;90.29
9538;BME280;4807;48.024;11.726;2023-05-02T02:43:54;95060.03;;;8.08;89.99
9538;BME280;4807;48.024;11.726;2023-05-02T02:47:08;95061.19;;;8.20;89.72
9538;BME280;4807;48.024;11.726;2023-05-02T02:50:29;95060.28;;;8.13;90.03
9538;BME280;4807;48.024;11.726;2023-05-02T02:53:54;95063.50;;;8.23;89.23
9538;BME280;4807;48.024;11.726;2023-05-02T02:57:15;95062.69;;;8.22;89.48
9538;BME280;4807;48.024;11.726;2023-05-02T03:00:26;95071.53;;;8.15;89.10
9538;BME280;4807;48.024;11.726;2023-05-02T03:03:38;95063.78;;;8.13;89.10
9538;BME280;4807;48.024;11.726;2023-05-02T03:06:49;95069.81;;;8.07;89.21
9538;BME280;4807;48.024;11.726;2023-05-02T03:09:57;95073.63;;;8.04;90.02
9538;BME280;4807;48.024;11.726;2023-05-02T03:13:06;95074.75;;;8.10;89.98
9538;BME280;4807;48.024;11.726;2023-05-02T03:16:35;95075.19;;;8.14;89.63
9538;BME280;4807;48.024;11.726;2023-05-02T03:19:47;95074.31;;;8.36;88.01
9538;BME280;4807;48.024;11.726;2023-05-02T03:22:57;95082.25;;;8.36;88.70
9538;BME280;4807;48.024;11.726;2023-05-02T03:26:05;95073.94;;;8.39;88.53
9538;BME280;4807;48.024;11.726;2023-05-02T03:29:14;95073.38;;;8.29;88.37
9538;BME280;4807;48.024;11.726;2023-05-02T03:32:23;95083.97;;;8.29;88.83
9538;BME280;4807;48.024;11.726;2023-05-02T03:35:31;95083.31;;;8.35;89.14
9538;BME280;4807;48.024;11.726;2023-05-02T03:38:41;95080.00;;;8.33;88.81
9538;BME280;4807;48.024;11.726;2023-05-02T03:41:51;95084.31;;;8.34;88.92
9538;BME280;4807;48.024;11.726;2023-05-02T03:45:03;95090.03;;;8.52;87.52
9538;BME280;4807;48.024;11.726;2023-05-02T03:48:12;95079.34;;;8.46;87.34
9538;BME280;4807;48.024;11.726;2023-05-02T03:51:21;95085.03;;;8.43;88.50
9538;BME280;4807;48.024;11.726;2023-05-02T03:54:34;95088.22;;;8.38;88.71
9538;BME280;4807;48.024;11.726;2023-05-02T03:57:43;95098.47;;;8.41;88.13
9538;BME280;4807;48.024;11.726;2023-05-02T04:00:53;95103.94;;;8.54;87.68
9538;BME280;4807;48.024;11.726;2023-05-02T04:04:03;95103.13;;;8.54;88.22
9538;BME280;4807;48.024;11.726;2023-05-02T04:07:17;95107.44;;;8.55;87.47
9538;BME280;4807;48.024;11.726;2023-05-02T04:10:37;95113.81;;;8.60;88.04
9538;BME280;4807;48.024;11.726;2023-05-02T04:13:48;95113.47;;;8.63;87.75
9538;BME280;4807;48.024;11.726;2023-05-02T04:16:59;95113.53;;;8.70;87.02
9538;BME280;4807;48.024;11.726;2023-05-02T04:20:16;95121.31;;;8.71;87.49
9538;BME280;4807;48.024;11.726;2023-05-02T04:23:29;95127.72;;;8.92;86.38
9538;BME280;4807;48.024;11.726;2023-05-02T04:26:42;95125.53;;;8.80;86.78
9538;BME280;4807;48.024;11.726;2023-05-02T04:29:53;95130.00;;;8.80;86.88
9538;BME280;4807;48.024;11.726;2023-05-02T04:33:02;95132.94;;;8.70;86.92
9538;BME280;4807;48.024;11.726;2023-05-02T04:36:15;95135.56;;;8.85;86.20
9538;BME280;4807;48.024;11.726;2023-05-02T04:39:24;95134.63;;;8.93;86.06
9538;BME280;4807;48.024;11.726;2023-05-02T04:42:50;95148.22;;;8.98;86.29
9538;BME280;4807;48.024;11.726;2023-05-02T04:46:02;95144.06;;;8.95;86.41
9538;BME280;4807;48.024;11.726;2023-05-02T04:49:15;95149.94;;;9.05;85.60
9538;BME280;4807;48.024;11.726;2023-05-02T04:52:23;95153.00;;;9.24;84.25
9538;BME280;4807;48.024;11.726;2023-05-02T04:55:33;95152.59;;;9.27;84.38
9538;BME280;4807;48.024;11.726;2023-05-02T04:58:43;95157.75;;;9.28;84.46
9538;BME280;4807;48.024;11.726;2023-05-02T05:01:53;95169.16;;;9.43;83.93
9538;BME280;4807;48.024;11.726;2023-05-02T05:05:01;95172.38;;;9.60;83.34
9538;BME280;4807;48.024;11.726;2023-05-02T05:08:10;95173.53;;;9.72;82.96
9538;BME280;4807;48.024;11.726;2023-05-02T05:11:20;95185.53;;;9.89;82.51
9538;BME280;4807;48.024;11.726;2023-05-02T05:14:29;95177.50;;;10.04;81.29
9538;BME280;4807;48.024;11.726;2023-05-02T05:17:38;95186.09;;;10.06;81.44
9538;BME280;4807;48.024;11.726;2023-05-02T05:20:46;95197.66;;;10.13;81.50
9538;BME280;4807;48.024;11.726;2023-05-02T05:23:55;95203.09;;;10.26;81.02
9538;BME280;4807;48.024;11.726;2023-05-02T05:27:07;95208.06;;;10.29;80.92
9538;BME280;4807;48.024;11.726;2023-05-02T05:30:18;95206.41;;;10.28;80.56
9538;BME280;4807;48.024;11.726;2023-05-02T05:33:27;95214.16;;;10.30;79.66
9538;BME280;4807;48.024;11.726;2023-05-02T05:36:37;95218.19;;;10.19;80.34
9538;BME280;4807;48.024;11.726;2023-05-02T05:39:47;95222.69;;;10.19;80.13
9538;BME280;4807;48.024;11.726;2023-05-02T05:42:56;95226.88;;;10.28;80.23
9538;BME280;4807;48.024;11.726;2023-05-02T05:46:15;95236.09;;;10.32;80.44
9538;BME280;4807;48.024;11.726;2023-05-02T05:49:24;95241.19;;;10.27;81.21
9538;BME280;4807;48.024;11.726;2023-05-02T05:52:32;95240.09;;;10.43;79.98
9538;BME280;4807;48.024;11.726;2023-05-02T05:55:42;95240.59;;;10.31;80.14
9538;BME280;4807;48.024;11.726;2023-05-02T05:58:50;95242.97;;;10.48;80.37
9538;BME280;4807;48.024;11.726;2023-05-02T06:02:02;95243.56;;;10.71;79.12
9538;BME280;4807;48.024;11.726;2023-05-02T06:05:12;95252.03;;;10.81;79.04
9538;BME280;4807;48.024;11.726;2023-05-02T06:08:21;95248.22;;;10.62;79.28
9538;BME280;4807;48.024;11.726;2023-05-02T06:11:30;95254.22;;;10.71;78.23
9538;BME280;4807;48.024;11.726;2023-05-02T06:14:39;95247.72;;;10.80;77.58
9538;BME280;4807;48.024;11.726;2023-05-02T06:17:51;95259.75;;;11.04;78.03
9538;BME280;4807;48.024;11.726;2023-05-02T06:21:03;95255.84;;;11.34;77.04
9538;BME280;4807;48.024;11.726;2023-05-02T06:24:11;95266.44;;;11.28;76.53
9538;BME280;4807;48.024;11.726;2023-05-02T06:27:20;95267.22;;;11.15;77.30
9538;BME280;4807;48.024;11.726;2023-05-02T06:30:28;95266.53;;;11.41;76.82
9538;BME280;4807;48.024;11.726;2023-05-02T06:33:38;95271.53;;;11.57;76.37
9538;BME280;4807;48.024;11.726;2023-05-02T06:36:46;95265.00;;;11.66;75.30
9538;BME280;4807;48.024;11.726;2023-05-02T06:39:54;95267.16;;;11.91;74.43
9538;BME280;4807;48.024;11.726;2023-05-02T06:43:03;95270.41;;;11.86;74.34
9538;BME280;4807;48.024;11.726;2023-05-02T06:46:11;95275.81;;;12.12;74.32
9538;BME280;4807;48.024;11.726;2023-05-02T06:49:21;95269.31;;;12.81;73.27
9538;BME280;4807;48.024;11.726;2023-05-02T06:52:29;95277.28;;;13.07;71.66
9538;BME280;4807;48.024;11.726;2023-05-02T06:55:37;95279.56;;;12.90;71.05
9538;BME280;4807;48.024;11.726;2023-05-02T06:58:46;95291.56;;;13.65;69.95
9538;BME280;4807;48.024;11.726;2023-05-02T07:01:54;95281.63;;;14.24;68.56
9538;BME280;4807;48.024;11.726;2023-05-02T07:05:05;95287.63;;;15.07;64.74
9538;BME280;4807;48.024;11.726;2023-05-02T07:08:13;95287.19;;;16.49;61.25
9538;BME280;4807;48.024;11.726;2023-05-02T07:11:22;95285.34;;;14.23;63.98
9538;BME280;4807;48.024;11.726;2023-05-02T07:14:31;95287.28;;;14.09;68.24
9538;BME280;4807;48.024;11.726;2023-05-02T07:17:39;95290.69;;;14.85;64.96
9538;BME280;4807;48.024;11.726;2023-05-02T07:20:49;95293.53;;;14.28;66.03
9538;BME280;4807;48.024;11.726;2023-05-02T07:23:57;95282.59;;;13.98;66.81
9538;BME280;4807;48.024;11.726;2023-05-02T07:27:05;95292.25;;;13.48;68.38
9538;BME280;4807;48.024;11.726;2023-05-02T07:30:14;95287.69;;;14.75;66.49
9538;BME280;4807;48.024;11.726;2023-05-02T07:33:22;95286.53;;;15.14;64.77
9538;BME280;4807;48.024;11.726;2023-05-02T07:36:32;95283.53;;;15.84;60.78
9538;BME280;4807;48.024;11.726;2023-05-02T07:39:40;95285.28;;;15.35;62.93
9538;BME280;4807;48.024;11.726;2023-05-02T07:42:49;95289.56;;;14.75;65.60
9538;BME280;4807;48.024;11.726;2023-05-02T07:46:02;95280.88;;;15.22;65.12
9538;BME280;4807;48.024;11.726;2023-05-02T07:49:12;95294.06;;;16.15;62.60
9538;BME280;4807;48.024;11.726;2023-05-02T07:52:22;95281.84;;;16.19;60.76
9538;BME280;4807;48.024;11.726;2023-05-02T07:55:30;95287.78;;;15.73;61.83
9538;BME280;4807;48.024;11.726;2023-05-02T07:58:39;95290.09;;;16.48;59.44
9538;BME280;4807;48.024;11.726;2023-05-02T08:01:47;95299.50;;;15.97;60.21
9538;BME280;4807;48.024;11.726;2023-05-02T08:04:56;95291.13;;;16.65;59.29
9538;BME280;4807;48.024;11.726;2023-05-02T08:08:06;95306.06;;;15.64;62.30
9538;BME280;4807;48.024;11.726;2023-05-02T08:11:14;95304.09;;;15.90;61.88
9538;BME280;4807;48.024;11.726;2023-05-02T08:14:22;95310.75;;;15.01;63.20
9538;BME280;4807;48.024;11.726;2023-05-02T08:17:30;95313.63;;;13.61;68.08
9538;BME280;4807;48.024;11.726;2023-05-02T08:20:38;95317.28;;;13.73;68.33
9538;BME280;4807;48.024;11.726;2023-05-02T08:23:48;95313.34;;;13.82;68.70
9538;BME280;4807;48.024;11.726;2023-05-02T08:26:56;95313.03;;;14.10;67.34
9538;BME280;4807;48.024;11.726;2023-05-02T08:30:06;95320.34;;;13.83;66.32
9538;BME280;4807;48.024;11.726;2023-05-02T08:33:16;95316.69;;;14.16;68.19
9538;BME280;4807;48.024;11.726;2023-05-02T08:36:24;95323.69;;;14.17;67.49
9538;BME280;4807;48.024;11.726;2023-05-02T08:39:36;95318.31;;;14.86;66.94
9538;BME280;4807;48.024;11.726;2023-05-02T08:42:44;95321.13;;;14.41;65.66
9538;BME280;4807;48.024;11.726;2023-05-02T08:45:55;95324.06;;;14.89;65.34
9538;BME280;4807;48.024;11.726;2023-05-02T08:49:09;95334.66;;;15.52;63.69
9538;BME280;4807;48.024;11.726;2023-05-02T08:52:19;95334.53;;;15.65;62.32
9538;BME280;4807;48.024;11.726;2023-05-02T08:55:30;95333.91;;;15.45;61.98
9538;BME280;4807;48.024;11.726;2023-05-02T08:58:39;95341.00;;;15.58;62.86
9538;BME280;4807;48.024;11.726;2023-05-02T09:01:51;95345.72;;;15.99;61.50
9538;BME280;4807;48.024;11.726;2023-05-02T09:05:06;95341.78;;;15.83;61.97
9538;BME280;4807;48.024;11.726;2023-05-02T09:08:21;95350.91;;;16.30;61.12
9538;BME280;4807;48.024;11.726;2023-05-02T09:11:31;95345.06;;;16.52;61.50
9538;BME280;4807;48.024;11.726;2023-05-02T09:14:40;95358.25;;;16.23;60.88
9538;BME280;4807;48.024;11.726;2023-05-02T09:17:50;95355.97;;;16.38;59.95
9538;BME280;4807;48.024;11.726;2023-05-02T09:21:03;95364.03;;;16.38;59.70
9538;BME280;4807;48.024;11.726;2023-05-02T09:24:17;95370.78;;;15.75;60.74
9538;BME280;4807;48.024;11.726;2023-05-02T09:27:27;95364.09;;;16.20;60.20
9538;BME280;4807;48.024;11.726;2023-05-02T09:30:36;95361.25;;;16.15;59.90
9538;BME280;4807;48.024;11.726;2023-05-02T09:33:45;95362.34;;;16.74;58.42
9538;BME280;4807;48.024;11.726;2023-05-02T09:36:53;95364.13;;;15.34;62.45
9538;BME280;4807;48.024;11.726;2023-05-02T09:40:07;95353.41;;;15.77;61.25
9538;BME280;4807;48.024;11.726;2023-05-02T09:43:18;95365.06;;;15.46;60.66
9538;BME280;4807;48.024;11.726;2023-05-02T09:46:39;95359.47;;;15.73;58.12
9538;BME280;4807;48.024;11.726;2023-05-02T09:49:49;95362.03;;;16.52;57.71
9538;BME280;4807;48.024;11.726;2023-05-02T09:53:01;95363.28;;;16.50;58.69
9538;BME280;4807;48.024;11.726;2023-05-02T09:56:10;95365.38;;;17.07;58.05
9538;BME280;4807;48.024;11.726;2023-05-02T09:59:21;95357.53;;;15.80;55.08
9538;BME280;4807;48.024;11.726;2023-05-02T10:02:31;95374.25;;;15.57;56.72
9538;BME280;4807;48.024;11.726;2023-05-02T10:05:42;95364.38;;;15.08;57.80
9538;BME280;4807;48.024;11.726;2023-05-02T10:08:51;95364.69;;;15.18;59.77
9538;BME280;4807;48.024;11.726;2023-05-02T10:12:02;95369.38;;;15.47;59.58
9538;BME280;4807;48.024;11.726;2023-05-02T10:15:15;95367.03;;;15.57;57.21
9538;BME280;4807;48.024;11.726;2023-05-02T10:18:37;95361.25;;;14.79;59.14
9538;BME280;4807;48.024;11.726;2023-05-02T10:21:49;95363.84;;;14.61;60.43
9538;BME280;4807;48.024;11.726;2023-05-02T10:24:58;95368.78;;;14.20;60.65
9538;BME280;4807;48.024;11.726;2023-05-02T10:28:09;95364.56;;;13.92;61.79
9538;BME280;4807;48.024;11.726;2023-05-02T10:31:21;95371.41;;;14.33;63.49
9538;BME280;4807;48.024;11.726;2023-05-02T10:34:32;95370.94;;;14.49;60.60
9538;BME280;4807;48.024;11.726;2023-05-02T10:37:42;95366.72;;;14.60;62.92
9538;BME280;4807;48.024;11.726;2023-05-02T10:40:58;95365.13;;;15.15;62.30
9538;BME280;4807;48.024;11.726;2023-05-02T10:44:08;95371.81;;;15.55;59.14
9538;BME280;4807;48.024;11.726;2023-05-02T10:47:22;95366.63;;;15.79;57.45
9538;BME280;4807;48.024;11.726;2023-05-02T10:50:43;95360.72;;;16.55;56.03
9538;BME280;4807;48.024;11.726;2023-05-02T10:53:53;95347.84;;;17.16;52.81
9538;BME280;4807;48.024;11.726;2023-05-02T10:57:06;95354.50;;;16.61;53.71
9538;BME280;4807;48.024;11.726;2023-05-02T11:00:22;95355.78;;;17.11;52.36
9538;BME280;4807;48.024;11.726;2023-05-02T11:03:55;95351.25;;;16.52;56.69
9538;BME280;4807;48.024;11.726;2023-05-02T11:07:17;95351.16;;;17.42;53.14
9538;BME280;4807;48.024;11.726;2023-05-02T11:10:27;95352.09;;;16.53;54.45
9538;BME280;4807;48.024;11.726;2023-05-02T11:13:48;95347.41;;;17.89;51.44
9538;BME280;4807;48.024;11.726;2023-05-02T11:17:07;95350.91;;;16.78;51.91
9538;BME280;4807;48.024;11.726;2023-05-02T11:20:21;95353.97;;;16.82;52.97
9538;BME280;4807;48.024;11.726;2023-05-02T11:23:29;95347.63;;;16.76;51.23
9538;BME280;4807;48.024;11.726;2023-05-02T11:26:38;95346.16;;;18.32;49.15
9538;BME280;4807;48.024;11.726;2023-05-02T11:29:53;95344.34;;;18.78;48.17
9538;BME280;4807;48.024;11.726;2023-05-02T11:33:18;95349.06;;;19.16;46.71
9538;BME280;4807;48.024;11.726;2023-05-02T11:36:32;95340.78;;;18.89;45.39
9538;BME280;4807;48.024;11.726;2023-05-02T11:39:41;95344.53;;;18.59;48.03
9538;BME280;4807;48.024;11.726;2023-05-02T11:42:50;95349.97;;;17.38;48.38
9538;BME280;4807;48.024;11.726;2023-05-02T11:46:00;95352.97;;;16.65;51.33
9538;BME280;4807;48.024;11.726;2023-05-02T11:49:09;95360.34;;;15.85;55.77
9538;BME280;4807;48.024;11.726;2023-05-02T11:52:23;95368.47;;;15.60;56.75
9538;BME280;4807;48.024;11.726;2023-05-02T11:55:31;95359.44;;;15.30;57.14
9538;BME280;4807;48.024;11.726;2023-05-02T11:58:40;95373.06;;;14.34;59.49
9538;BME280;4807;48.024;11.726;2023-05-02T12:01:49;95376.16;;;12.61;64.79
9538;BME280;4807;48.024;11.726;2023-05-02T12:05:01;95389.31;;;12.02;67.68
9538;BME280;4807;48.024;11.726;2023-05-02T12:08:23;95400.94;;;11.81;70.09
9538;BME280;4807;48.024;11.726;2023-05-02T12:11:32;95409.19;;;11.93;71.88
9538;BME280;4807;48.024;11.726;2023-05-02T12:14:40;95413.59;;;12.07;74.62
9538;BME280;4807;48.024;11.726;2023-05-02T12:17:49;95420.78;;;12.06;74.28
9538;BME280;4807;48.024;11.726;2023-05-02T12:20:59;95425.03;;;12.01;74.02
9538;BME280;4807;48.024;11.726;2023-05-02T12:24:08;95432.88;;;12.09;74.87
9538;BME280;4807;48.024;11.726;2023-05-02T12:27:17;95426.97;;;12.20;73.33
9538;BME280;4807;48.024;11.726;2023-05-02T12:30:25;95422.59;;;12.73;71.94
9538;BME280;4807;48.024;11.726;2023-05-02T12:33:42;95424.16;;;12.41;73.88
9538;BME280;4807;48.024;11.726;2023-05-02T12:36:51;95413.81;;;12.92;71.65
9538;BME280;4807;48.024;11.726;2023-05-02T12:40:01;95419.81;;;13.47;70.06
9538;BME280;4807;48.024;11.726;2023-05-02T12:43:10;95416.84;;;14.01;67.72
9538;BME280;4807;48.024;11.726;2023-05-02T12:46:18;95420.69;;;14.25;67.40
9538;BME280;4807;48.024;11.726;2023-05-02T12:49:26;95416.28;;;14.50;66.61
9538;BME280;4807;48.024;11.726;2023-05-02T12:52:50;95420.03;;;14.30;67.96
9538;BME280;4807;48.024;11.726;2023-05-02T12:56:06;95414.25;;;14.33;67.75
9538;BME280;4807;48.024;11.726;2023-05-02T12:59:26;95411.59;;;14.33;68.77
9538;BME280;4807;48.024;11.726;2023-05-02T13:02:35;95417.19;;;14.69;67.21
9538;BME280;4807;48.024;11.726;2023-05-02T13:05:43;95416.16;;;15.02;65.11
9538;BME280;4807;48.024;11.726;2023-05-02T13:08:51;95409.53;;;15.36;62.79
9538;BME280;4807;48.024;11.726;2023-05-02T13:12:01;95402.22;;;15.43;62.56
9538;BME280;4807;48.024;11.726;2023-05-02T13:15:11;95408.81;;;15.47;62.23
9538;BME280;4807;48.024;11.726;2023-05-02T13:18:20;95409.31;;;15.37;60.03
9538;BME280;4807;48.024;11.726;2023-05-02T13:21:28;95411.34;;;15.67;60.33
9538;BME280;4807;48.024;11.726;2023-05-02T13:24:37;95403.47;;;15.72;60.15
9538;BME280;4807;48.024;11.726;2023-05-02T13:27:47;95416.59;;;15.98;58.94
9538;BME280;4807;48.024;11.726;2023-05-02T13:30:55;95410.34;;;16.22;59.86
9538;BME280;4807;48.024;11.726;2023-05-02T13:34:04;95411.91;;;16.66;58.87
9538;BME280;4807;48.024;11.726;2023-05-02T13:37:13;95404.13;;;16.88;57.45
9538;BME280;4807;48.024;11.726;2023-05-02T13:40:21;95396.47;;;17.03;56.92
9538;BME280;4807;48.024;11.726;2023-05-02T13:43:32;95402.38;;;17.24;56.96
9538;BME280;4807;48.024;11.726;2023-05-02T13:46:40;95387.19;;;17.41;54.20
9538;BME280;4807;48.024;11.726;2023-05-02T13:49:49;95398.16;;;17.28;54.35
9538;BME280;4807;48.024;11.726;2023-05-02T13:52:58;95391.47;;;17.07;56.60
9538;BME280;4807;48.024;11.726;2023-05-02T13:56:07;95394.44;;;17.40;57.23
9538;BME280;4807;48.024;11.726;2023-05-02T13:59:17;95395.03;;;16.89;59.08
9538;BME280;4807;48.024;11.726;2023-05-02T14:02:25;95400.25;;;17.14;56.70
9538;BME280;4807;48.024;11.726;2023-05-02T14:05:35;95405.66;;;17.26;56.50
9538;BME280;4807;48.024;11.726;2023-05-02T14:08:43;95410.66;;;16.81;56.21
9538;BME280;4807;48.024;11.726;2023-05-02T14:11:52;95416.81;;;16.99;56.49
9538;BME280;4807;48.024;11.726;2023-05-02T14:15:03;95416.53;;;16.89;55.63
9538;BME280;4807;48.024;11.726;2023-05-02T14:18:11;95416.34;;;16.72;57.25
9538;BME280;4807;48.024;11.726;2023-05-02T14:21:20;95423.84;;;16.34;57.60
9538;BME280;4807;48.024;11.726;2023-05-02T14:24:28;95430.84;;;15.98;60.16
9538;BME280;4807;48.024;11.726;2023-05-02T14:27:37;95429.22;;;15.54;59.93
9538;BME280;4807;48.024;11.726;2023-05-02T14:30:48;95433.44;;;15.12;63.29
9538;BME280;4807;48.024;11.726;2023-05-02T14:33:57;95433.47;;;14.68;64.46
9538;BME280;4807;48.024;11.726;2023-05-02T14:37:05;95432.66;;;14.16;66.44
9538;BME280;4807;48.024;11.726;2023-05-02T14:40:15;95450.44;;;13.91;65.36
9538;BME280;4807;48.024;11.726;2023-05-02T14:43:23;95452.75;;;13.61;66.58
9538;BME280;4807;48.024;11.726;2023-05-02T14:46:34;95471.28;;;13.36;67.06
9538;BME280;4807;48.024;11.726;2023-05-02T14:49:42;95463.44;;;13.21;67.09
9538;BME280;4807;48.024;11.726;2023-05-02T14:52:51;95473.88;;;12.96;64.32
9538;BME280;4807;48.024;11.726;2023-05-02T14:56:00;95477.22;;;12.57;64.62
9538;BME280;4807;48.024;11.726;2023-05-02T14:59:08;95477.00;;;12.46;65.96
9538;BME280;4807;48.024;11.726;2023-05-02T15:02:18;95488.91;;;12.09;63.33
9538;BME280;4807;48.024;11.726;2023-05-02T15:05:29;95485.66;;;12.07;64.00
9538;BME280;4807;48.024;11.726;2023-05-02T15:08:37;95488.06;;;12.02;65.34
9538;BME280;4807;48.024;11.726;2023-05-02T15:11:46;95485.00;;;12.05;65.79
9538;BME280;4807;48.024;11.726;2023-05-02T15:14:55;95486.22;;;12.02;65.89
9538;BME280;4807;48.024;11.726;2023-05-02T15:18:05;95473.66;;;11.96;67.20
9538;BME280;4807;48.024;11.726;2023-05-02T15:21:14;95478.81;;;11.98;67.95
9538;BME280;4807;48.024;11.726;2023-05-02T15:24:23;95484.22;;;12.11;69.58
9538;BME280;4807;48.024;11.726;2023-05-02T15:27:31;95469.13;;;12.31;69.34
9538;BME280;4807;48.024;11.726;2023-05-02T15:30:40;95460.72;;;12.41;69.81
9538;BME280;4807;48.024;11.726;2023-05-02T15:33:50;95449.56;;;12.72;69.59
9538;BME280;4807;48.024;11.726;2023-05-02T15:36:59;95446.56;;;13.14;69.32
9538;BME280;4807;48.024;11.726;2023-05-02T15:40:09;95428.88;;;13.46;68.15
9538;BME280;4807;48.024;11.726;2023-05-02T15:43:18;95417.91;;;13.87;67.09
9538;BME280;4807;48.024;11.726;2023-05-02T15:46:26;95416.75;;;14.28;66.97
9538;BME280;4807;48.024;11.726;2023-05-02T15:49:36;95412.94;;;14.55;67.38
9538;BME280;4807;48.024;11.726;2023-05-02T15:52:44;95408.47;;;14.36;68.03
9538;BME280;4807;48.024;11.726;2023-05-02T15:55:53;95410.34;;;14.29;67.04
9538;BME280;4807;48.024;11.726;2023-05-02T15:59:02;95418.84;;;14.26;66.96
9538;BME280;4807;48.024;11.726;2023-05-02T16:02:10;95417.22;;;14.05;68.57
9538;BME280;4807;48.024;11.726;2023-05-02T16:05:19;95423.84;;;14.02;69.84
9538;BME280;4807;48.024;11.726;2023-05-02T16:08:28;95417.31;;;13.72;70.63
9538;BME280;4807;48.024;11.726;2023-05-02T16:11:37;95419.41;;;13.70;71.40
9538;BME280;4807;48.024;11.726;2023-05-02T16:14:45;95421.25;;;13.56;73.19
9538;BME280;4807;48.024;11.726;2023-05-02T16:17:53;95419.03;;;13.27;74.36
9538;BME280;4807;48.024;11.726;2023-05-02T16:21:04;95433.41;;;13.52;73.25
9538;BME280;4807;48.024;11.726;2023-05-02T16:24:13;95436.88;;;13.86;72.71
9538;BME280;4807;48.024;11.726;2023-05-02T16:27:21;95444.66;;;14.00;72.45
9538;BME280;4807;48.024;11.726;2023-05-02T16:30:29;95432.63;;;14.23;69.54
9538;BME280;4807;48.024;11.726;2023-05-02T16:33:38;95428.53;;;14.13;69.22
9538;BME280;4807;48.024;11.726;2023-05-02T16:36:48;95449.00;;;13.88;69.98
9538;BME280;4807;48.024;11.726;2023-05-02T16:39:58;95451.88;;;13.87;70.74
9538;BME280;4807;48.024;11.726;2023-05-02T16:43:07;95449.44;;;13.85;70.39
9538;BME280;4807;48.024;11.726;2023-05-02T16:46:16;95459.72;;;13.82;70.39
9538;BME280;4807;48.024;11.726;2023-05-02T16:49:24;95464.69;;;13.78;69.04
9538;BME280;4807;48.024;11.726;2023-05-02T16:52:34;95465.50;;;13.85;68.81
9538;BME280;4807;48.024;11.726;2023-05-02T16:55:44;95474.97;;;13.74;70.32
9538;BME280;4807;48.024;11.726;2023-05-02T16:58:52;95476.84;;;13.61;70.30
9538;BME280;4807;48.024;11.726;2023-05-02T17:02:01;95476.19;;;13.19;72.12
9538;BME280;4807;48.024;11.726;2023-05-02T17:05:09;95496.09;;;12.97;73.11
9538;BME280;4807;48.024;11.726;2023-05-02T17:08:19;95503.66;;;12.87;73.71